Time;durP1;ratioP1;P1;durP2;ratioP2;P2;SDS_P1;SDS_P2;PMS_P1;PMS_P2;Temp;Humidity;BMP_temperature;BMP_pressure;BME280_temperature;BME280_humidity;BME280_pressure;Samples;Min_cycle;Max_cycle;Signal;HPM_P1;HPM_P2
2023/05/05 00:01:49;;;;;;;11.02;8.55;;;18.20;67.30;;;;;;5076267;28;20175;-89
2023/05/05 00:04:16;;;;;;;10.02;9.25;;;18.10;67.90;;;;;;5076836;28;20726;-88
2023/05/05 00:06:42;;;;;;;10.50;9.50;;;18.10;68.80;;;;;;5075344;28;20302;-89
2023/05/05 00:09:08;;;;;;;10.13;9.23;;;18.10;67.80;;;;;;5074155;28;20213;-89
2023/05/05 00:11:33;;;;;;;10.60;9.80;;;18.10;67.70;;;;;;5073324;28;20436;-89
2023/05/05 00:13:59;;;;;;;10.70;9.75;;;18.10;67.60;;;;;;5073624;28;20225;-89
2023/05/05 00:16:25;;;;;;;9.52;8.80;;;18.20;67.30;;;;;;5072136;28;20219;-90
2023/05/05 00:18:51;;;;;;;10.70;9.80;;;18.20;68.10;;;;;;5054572;28;20517;-89
2023/05/05 00:21:17;;;;;;;11.18;10.15;;;18.20;67.70;;;;;;5036047;28;20577;-89
2023/05/05 00:23:42;;;;;;;10.45;9.70;;;18.20;68.80;;;;;;5052360;28;20225;-88
2023/05/05 00:26:08;;;;;;;10.50;9.70;;;18.20;67.70;;;;;;5056703;28;20248;-89
2023/05/05 00:28:33;;;;;;;10.85;9.90;;;18.10;68.40;;;;;;5073194;28;20266;-88
2023/05/05 00:31:00;;;;;;;10.73;9.82;;;18.10;68.80;;;;;;5057194;28;20195;-89
2023/05/05 00:33:26;;;;;;;10.50;9.80;;;18.10;68.70;;;;;;5055473;28;20196;-89
2023/05/05 00:35:51;;;;;;;10.85;10.05;;;18.10;68.80;;;;;;5058980;28;20217;-88
2023/05/05 00:38:17;;;;;;;10.60;9.70;;;18.30;67.90;;;;;;5076557;28;20204;-89
2023/05/05 00:40:43;;;;;;;9.88;9.05;;;18.30;67.60;;;;;;5075671;28;20225;-89
2023/05/05 00:43:09;;;;;;;9.65;8.90;;;18.10;69.40;;;;;;5062747;28;20207;-89
2023/05/05 00:45:36;;;;;;;10.25;9.45;;;17.90;70.30;;;;;;5037063;28;20643;-89
2023/05/05 00:48:02;;;;;;;10.40;9.13;;;17.80;70.80;;;;;;5053305;28;20218;-87
2023/05/05 00:50:29;;;;;;;10.80;9.90;;;17.70;71.40;;;;;;5052561;28;20168;-90
2023/05/05 00:52:59;;;;;;;10.88;9.80;;;17.70;71.10;;;;;;5035681;28;20393;-90
2023/05/05 00:55:25;;;;;;;10.40;9.50;;;17.70;72.30;;;;;;5052995;28;20196;-89
2023/05/05 00:57:50;;;;;;;11.10;10.25;;;17.70;70.80;;;;;;5056265;28;20785;-89
2023/05/05 01:00:16;;;;;;;10.65;9.75;;;17.80;70.30;;;;;;5055596;28;20452;-89
2023/05/05 01:02:43;;;;;;;11.40;9.05;;;17.90;70.40;;;;;;5077190;28;20211;-90
2023/05/05 01:05:09;;;;;;;10.27;9.38;;;17.80;70.90;;;;;;5079515;28;20199;-89
2023/05/05 01:08:02;;;;;;;11.45;10.55;;;17.70;71.40;;;;;;5079050;28;20192;-89
2023/05/05 01:10:33;;;;;;;10.95;10.15;;;17.60;71.50;;;;;;5078111;28;20535;-89
2023/05/05 01:13:19;;;;;;;11.55;10.40;;;17.50;71.70;;;;;;5057857;28;20179;-88
2023/05/05 01:15:47;;;;;;;10.48;9.68;;;17.60;71.30;;;;;;5061979;28;20255;-88
2023/05/05 01:18:43;;;;;;;10.70;9.93;;;17.50;71.30;;;;;;5076168;28;20279;-89
2023/05/05 01:21:22;;;;;;;10.93;9.93;;;17.50;71.70;;;;;;5061677;28;20203;-89
2023/05/05 01:24:21;;;;;;;10.70;9.90;;;17.60;71.10;;;;;;5045828;28;20258;-89
2023/05/05 01:26:56;;;;;;;10.00;9.30;;;17.60;70.70;;;;;;5063729;28;20227;-91
2023/05/05 01:29:52;;;;;;;11.05;10.25;;;17.60;71.70;;;;;;5059176;28;20203;-89
2023/05/05 01:32:24;;;;;;;11.07;10.15;;;17.60;71.10;;;;;;5058305;28;20178;-88
2023/05/05 01:35:03;;;;;;;9.93;9.20;;;17.70;71.10;;;;;;5058594;28;20551;-89
2023/05/05 01:37:40;;;;;;;10.23;9.43;;;17.80;70.60;;;;;;5065289;28;20199;-88
2023/05/05 01:40:09;;;;;;;11.02;10.02;;;17.80;70.40;;;;;;5078326;28;20185;-89
2023/05/05 01:42:36;;;;;;;11.10;10.27;;;17.80;70.80;;;;;;5077829;28;20206;-89
2023/05/05 01:45:05;;;;;;;10.98;9.98;;;17.70;71.40;;;;;;5063373;28;20187;-88
2023/05/05 01:47:31;;;;;;;10.45;9.70;;;17.60;72.00;;;;;;5054551;28;20306;-89
2023/05/05 01:49:57;;;;;;;9.98;9.27;;;17.70;71.90;;;;;;5055376;28;20281;-90
2023/05/05 01:52:25;;;;;;;10.40;9.70;;;17.70;71.60;;;;;;5054684;28;20215;-90
2023/05/05 01:54:52;;;;;;;10.35;9.55;;;17.70;72.30;;;;;;5074529;28;20226;-89
2023/05/05 01:57:20;;;;;;;10.88;10.07;;;17.70;72.30;;;;;;5074250;28;20246;-89
2023/05/05 01:59:47;;;;;;;10.98;10.07;;;17.70;72.30;;;;;;5077403;28;20168;-89
2023/05/05 02:02:14;;;;;;;10.57;9.68;;;17.60;72.40;;;;;;5077172;28;20208;-88
2023/05/05 02:04:43;;;;;;;10.40;9.43;;;17.70;72.30;;;;;;5077162;28;20186;-89
2023/05/05 02:07:11;;;;;;;10.68;9.88;;;17.60;72.40;;;;;;5081633;28;20219;-90
2023/05/05 02:09:38;;;;;;;10.05;9.18;;;17.50;72.80;;;;;;5061196;28;20171;-88
2023/05/05 02:12:05;;;;;;;10.02;9.27;;;17.50;72.60;;;;;;5060047;28;20192;-90
2023/05/05 02:14:31;;;;;;;9.73;8.95;;;17.50;72.90;;;;;;5054937;28;20244;-89
2023/05/05 02:16:58;;;;;;;10.57;9.77;;;17.40;73.50;;;;;;5074284;28;20195;-88
2023/05/05 02:19:31;;;;;;;10.80;9.75;;;17.30;74.30;;;;;;5071431;28;20179;-89
2023/05/05 02:21:57;;;;;;;10.88;10.07;;;17.20;75.30;;;;;;5053136;28;20239;-89
2023/05/05 02:24:24;;;;;;;10.90;9.90;;;17.10;75.40;;;;;;5038436;28;20201;-89
2023/05/05 02:26:51;;;;;;;10.68;9.73;;;17.20;75.20;;;;;;5055560;28;20196;-88
2023/05/05 02:29:40;;;;;;;10.40;9.60;;;17.20;75.00;;;;;;5055263;28;20172;-89
2023/05/05 02:32:13;;;;;;;10.00;9.05;;;17.20;74.70;;;;;;5056537;28;20268;-88
2023/05/05 02:34:41;;;;;;;10.23;9.43;;;17.20;75.70;;;;;;5055881;28;20231;-88
2023/05/05 02:37:11;;;;;;;9.80;9.02;;;17.10;75.00;;;;;;5055053;28;20743;-90
2023/05/05 02:40:04;;;;;;;11.05;10.18;;;17.10;75.40;;;;;;5055495;28;20194;-89
2023/05/05 02:42:38;;;;;;;11.02;10.23;;;17.20;75.60;;;;;;5071881;28;20449;-89
2023/05/05 02:45:11;;;;;;;9.70;9.00;;;17.30;74.80;;;;;;5074445;28;20171;-90
2023/05/05 02:47:37;;;;;;;10.27;9.48;;;17.30;74.20;;;;;;5074431;28;20213;-88
2023/05/05 02:50:07;;;;;;;10.13;9.13;;;17.20;75.00;;;;;;5074477;28;20186;-89
2023/05/05 02:52:33;;;;;;;10.55;9.65;;;17.10;75.40;;;;;;5055881;28;20187;-87
2023/05/05 02:55:01;;;;;;;10.40;9.50;;;17.10;75.90;;;;;;5057173;28;20176;-88
2023/05/05 02:57:40;;;;;;;10.82;9.98;;;17.10;75.90;;;;;;5073879;28;20266;-90
2023/05/05 03:00:37;;;;;;;10.10;9.30;;;17.10;76.20;;;;;;5077302;28;20222;-90
2023/05/05 03:03:12;;;;;;;10.18;9.38;;;17.10;76.10;;;;;;5074941;28;20291;-89
2023/05/05 03:06:10;;;;;;;10.50;9.70;;;17.00;76.50;;;;;;5075564;28;20170;-89
2023/05/05 03:08:42;;;;;;;10.52;9.65;;;16.90;77.60;;;;;;5055254;28;20189;-90
2023/05/05 03:11:17;;;;;;;10.73;9.93;;;16.90;78.70;;;;;;5054924;28;20175;-90
2023/05/05 03:13:45;;;;;;;10.65;9.75;;;16.90;77.90;;;;;;5057825;28;20236;-89
2023/05/05 03:16:12;;;;;;;10.68;9.85;;;17.00;77.70;;;;;;5053627;28;20389;-88
2023/05/05 03:18:38;;;;;;;11.52;10.70;;;17.00;77.40;;;;;;5053074;28;20312;-89
2023/05/05 03:21:08;;;;;;;10.65;9.95;;;17.00;77.40;;;;;;5035562;28;20191;-89
2023/05/05 03:23:35;;;;;;;10.68;9.98;;;16.90;78.10;;;;;;5054747;28;20223;-89
2023/05/05 03:26:01;;;;;;;10.32;9.63;;;16.80;78.50;;;;;;5055900;28;20188;-89
2023/05/05 03:28:27;;;;;;;11.10;10.27;;;16.70;79.40;;;;;;5057503;28;20188;-89
2023/05/05 03:30:53;;;;;;;10.68;9.88;;;16.70;79.60;;;;;;5075173;28;20171;-89
2023/05/05 03:33:18;;;;;;;11.35;10.45;;;16.70;79.90;;;;;;5076527;28;20214;-87
2023/05/05 03:35:44;;;;;;;10.80;9.90;;;16.70;80.00;;;;;;5075608;28;20818;-87
2023/05/05 03:38:10;;;;;;;11.65;10.35;;;16.70;79.90;;;;;;5073636;28;20257;-88
2023/05/05 03:40:36;;;;;;;11.43;10.52;;;16.80;79.50;;;;;;5069710;28;20225;-88
2023/05/05 03:43:02;;;;;;;11.40;10.52;;;16.80;79.20;;;;;;5057851;28;20312;-89
2023/05/05 03:45:27;;;;;;;11.75;10.60;;;16.80;79.10;;;;;;5039809;28;20188;-89
2023/05/05 03:47:53;;;;;;;11.38;10.40;;;16.80;79.50;;;;;;5034382;28;20638;-89
2023/05/05 03:50:19;;;;;;;10.52;9.73;;;16.70;79.60;;;;;;5035528;28;20196;-86
2023/05/05 03:52:44;;;;;;;11.00;10.20;;;16.70;80.20;;;;;;5063024;28;20667;-86
2023/05/05 03:55:10;;;;;;;13.45;10.68;;;16.70;80.40;;;;;;5060146;28;20202;-91
2023/05/05 03:57:36;;;;;;;11.05;10.25;;;16.70;80.90;;;;;;5056239;28;20196;-91
2023/05/05 04:00:02;;;;;;;11.40;10.50;;;16.70;81.10;;;;;;5055965;28;20583;-91
2023/05/05 04:02:27;;;;;;;10.95;10.15;;;16.80;79.80;;;;;;5056982;28;20214;-91
2023/05/05 04:04:53;;;;;;;11.07;10.15;;;16.70;80.10;;;;;;5058086;28;20217;-88
2023/05/05 04:07:21;;;;;;;10.65;9.85;;;16.70;80.00;;;;;;5061634;28;20198;-90
2023/05/05 04:09:46;;;;;;;9.95;9.05;;;16.80;79.60;;;;;;5054526;28;20184;-91
2023/05/05 04:12:12;;;;;;;11.88;10.88;;;16.80;80.20;;;;;;5054076;28;20194;-89
2023/05/05 04:14:38;;;;;;;11.00;10.23;;;16.80;79.40;;;;;;5053041;28;20201;-90
2023/05/05 04:17:05;;;;;;;10.63;9.93;;;16.80;80.60;;;;;;5054690;28;20722;-91
2023/05/05 04:19:31;;;;;;;10.73;9.85;;;16.70;81.10;;;;;;5039291;28;20869;-89
2023/05/05 04:21:58;;;;;;;10.68;9.88;;;16.70;82.20;;;;;;5056322;28;20208;-90
2023/05/05 04:24:24;;;;;;;11.20;10.40;;;16.70;82.50;;;;;;5056752;28;20305;-86
2023/05/05 04:26:51;;;;;;;11.25;10.15;;;16.80;80.90;;;;;;5068641;28;20203;-89
2023/05/05 04:29:17;;;;;;;10.80;9.90;;;16.90;81.30;;;;;;5075920;28;20192;-88
2023/05/05 04:31:43;;;;;;;10.82;10.02;;;16.90;80.40;;;;;;5055371;28;20187;-88
2023/05/05 04:34:09;;;;;;;10.20;9.40;;;16.90;80.30;;;;;;5053837;28;20175;-88
2023/05/05 04:36:34;;;;;;;9.88;8.98;;;17.10;80.00;;;;;;5054675;28;20599;-88
2023/05/05 04:39:00;;;;;;;10.27;9.48;;;17.10;80.10;;;;;;5057627;28;20606;-88
2023/05/05 04:41:26;;;;;;;10.18;9.23;;;17.10;79.80;;;;;;5059993;28;20207;-88
2023/05/05 04:43:55;;;;;;;10.95;9.80;;;17.10;80.40;;;;;;5060636;28;20211;-89
2023/05/05 04:46:21;;;;;;;9.57;8.85;;;17.10;79.60;;;;;;5061706;28;20196;-89
2023/05/05 04:48:47;;;;;;;9.77;8.90;;;17.10;79.90;;;;;;5061893;28;20258;-88
2023/05/05 04:51:13;;;;;;;10.50;9.40;;;17.00;81.20;;;;;;5060571;28;20321;-89
2023/05/05 04:53:38;;;;;;;9.20;8.60;;;17.10;80.90;;;;;;5042283;28;20183;-89
2023/05/05 04:56:04;;;;;;;9.90;9.02;;;17.10;80.20;;;;;;5059923;28;20198;-91
2023/05/05 04:58:30;;;;;;;9.82;9.00;;;17.10;81.90;;;;;;5060338;28;20184;-89
2023/05/05 05:00:56;;;;;;;9.30;8.60;;;17.10;81.50;;;;;;5063725;28;20205;-90
2023/05/05 05:03:21;;;;;;;9.70;8.77;;;17.10;81.70;;;;;;5071250;28;20218;-90
2023/05/05 05:05:47;;;;;;;9.57;8.80;;;17.10;81.30;;;;;;5079972;28;20187;-89
2023/05/05 05:08:16;;;;;;;9.27;8.48;;;17.20;80.60;;;;;;5061718;28;20196;-88
2023/05/05 05:10:42;;;;;;;40.65;12.98;;;17.20;79.70;;;;;;5043047;28;20224;-88
2023/05/05 05:13:09;;;;;;;8.85;8.15;;;17.30;80.50;;;;;;5059670;28;20191;-85
2023/05/05 05:15:37;;;;;;;8.85;7.80;;;17.40;79.50;;;;;;5061414;28;20186;-86
2023/05/05 05:18:03;;;;;;;8.43;7.70;;;17.40;79.50;;;;;;5071398;28;20249;-87
2023/05/05 05:20:30;;;;;;;12.32;8.38;;;17.50;79.50;;;;;;5073807;28;20182;-87
2023/05/05 05:23:00;;;;;;;11.98;7.72;;;17.70;78.80;;;;;;5071356;28;20207;-87
2023/05/05 05:25:27;;;;;;;9.40;7.28;;;17.80;77.50;;;;;;5067644;28;20171;-88
2023/05/05 05:27:52;;;;;;;7.40;6.75;;;17.70;77.50;;;;;;5063135;28;20190;-87
2023/05/05 05:30:18;;;;;;;8.20;7.40;;;17.80;75.70;;;;;;5068675;28;20765;-87
2023/05/05 05:32:44;;;;;;;8.13;7.47;;;18.00;76.60;;;;;;5065791;28;20194;-86
2023/05/05 05:35:09;;;;;;;7.10;6.40;;;18.10;77.30;;;;;;5045737;28;20172;-86
2023/05/05 05:37:35;;;;;;;8.43;7.32;;;18.20;76.60;;;;;;5061385;28;20195;-86
2023/05/05 05:40:01;;;;;;;7.90;7.05;;;18.20;77.10;;;;;;5064432;28;20188;-88
2023/05/05 05:42:27;;;;;;;9.88;7.10;;;18.30;77.20;;;;;;5045082;28;20207;-87
2023/05/05 05:44:52;;;;;;;7.78;7.05;;;18.40;76.40;;;;;;5063271;28;20680;-89
2023/05/05 05:47:18;;;;;;;7.25;6.68;;;18.20;76.50;;;;;;5046429;28;20180;-88
2023/05/05 05:49:44;;;;;;;7.03;6.53;;;18.10;77.60;;;;;;5057068;28;20180;-87
2023/05/05 05:52:09;;;;;;;7.45;6.82;;;18.10;77.90;;;;;;5072001;28;20191;-86
2023/05/05 05:54:35;;;;;;;14.38;6.88;;;18.20;78.60;;;;;;5035267;28;20177;-86
2023/05/05 05:57:05;;;;;;;7.05;6.45;;;18.30;77.50;;;;;;5035760;28;20374;-87
2023/05/05 05:59:31;;;;;;;7.03;6.43;;;18.30;76.60;;;;;;5045623;28;20240;-87
2023/05/05 06:01:57;;;;;;;7.82;7.13;;;18.30;77.30;;;;;;5069944;28;20187;-85
2023/05/05 06:04:23;;;;;;;8.57;7.50;;;18.40;76.00;;;;;;5060563;28;20271;-85
2023/05/05 06:06:48;;;;;;;7.35;6.72;;;18.30;77.00;;;;;;5069017;28;20216;-89
2023/05/05 06:09:14;;;;;;;7.35;6.75;;;18.40;78.60;;;;;;5051132;28;20188;-87
2023/05/05 06:11:40;;;;;;;7.72;6.63;;;18.50;76.70;;;;;;5035627;28;20207;-87
2023/05/05 06:14:06;;;;;;;8.52;6.22;;;18.70;76.90;;;;;;5057921;28;20187;-90
2023/05/05 06:16:31;;;;;;;8.43;6.35;;;18.80;77.40;;;;;;5061306;28;20284;-90
2023/05/05 06:18:57;;;;;;;8.00;6.70;;;19.00;77.40;;;;;;5060039;28;20206;-88
2023/05/05 06:21:23;;;;;;;11.32;6.50;;;19.10;75.70;;;;;;5036900;28;20415;-87
2023/05/05 06:23:49;;;;;;;9.68;6.28;;;18.80;75.60;;;;;;5055953;28;20219;-89
2023/05/05 06:26:14;;;;;;;7.32;6.43;;;18.90;77.60;;;;;;5056511;28;20165;-89
2023/05/05 06:28:40;;;;;;;6.30;5.70;;;19.00;77.60;;;;;;5055179;28;20657;-89
2023/05/05 06:31:06;;;;;;;6.53;6.03;;;19.00;74.00;;;;;;5055519;28;20177;-88
2023/05/05 06:33:32;;;;;;;6.53;5.90;;;19.10;75.80;;;;;;5055711;28;20215;-88
2023/05/05 06:35:58;;;;;;;6.22;5.70;;;19.10;74.20;;;;;;5041938;28;20187;-88
2023/05/05 06:38:23;;;;;;;6.22;5.72;;;19.10;74.90;;;;;;5056699;28;20203;-88
2023/05/05 06:40:49;;;;;;;6.70;5.90;;;19.20;74.10;;;;;;5059781;28;20191;-88
2023/05/05 06:43:18;;;;;;;7.40;6.80;;;19.30;74.10;;;;;;5079361;28;20296;-88
2023/05/05 06:45:44;;;;;;;6.60;6.10;;;19.30;76.60;;;;;;5058575;28;20176;-88
2023/05/05 06:48:10;;;;;;;6.60;6.00;;;19.40;75.10;;;;;;5077095;28;20204;-89
2023/05/05 06:50:36;;;;;;;6.82;6.20;;;19.50;75.00;;;;;;5080521;28;20280;-88
2023/05/05 06:53:04;;;;;;;7.38;6.78;;;19.60;74.00;;;;;;5081864;28;20177;-90
2023/05/05 06:55:30;;;;;;;6.57;6.07;;;19.40;76.30;;;;;;5076997;28;20180;-89
2023/05/05 06:57:59;;;;;;;5.82;5.40;;;19.50;74.10;;;;;;5059968;28;20298;-88
2023/05/05 07:00:24;;;;;;;5.95;5.50;;;19.40;74.80;;;;;;5074519;28;20180;-89
2023/05/05 07:02:50;;;;;;;5.45;5.05;;;19.60;74.10;;;;;;5057251;28;20212;-89
2023/05/05 07:05:16;;;;;;;5.75;5.18;;;19.70;71.90;;;;;;5060036;28;20977;-89
2023/05/05 07:07:53;;;;;;;6.05;5.47;;;19.60;71.30;;;;;;5059647;28;20260;-89
2023/05/05 07:10:21;;;;;;;9.82;6.03;;;19.50;72.10;;;;;;5059042;28;20164;-88
2023/05/05 07:12:47;;;;;;;13.95;6.15;;;19.50;73.00;;;;;;5059224;28;20224;-89
2023/05/05 07:15:13;;;;;;;6.18;5.63;;;19.50;73.80;;;;;;5056392;28;20193;-89
2023/05/05 07:17:39;;;;;;;5.68;5.18;;;19.60;71.40;;;;;;5061673;28;20298;-90
2023/05/05 07:20:09;;;;;;;6.00;5.40;;;19.60;72.70;;;;;;5078600;28;20210;-90
2023/05/05 07:22:35;;;;;;;5.70;5.22;;;19.60;72.30;;;;;;5076978;28;20958;-88
2023/05/05 07:25:01;;;;;;;6.38;5.70;;;19.60;72.10;;;;;;5060664;28;20295;-90
2023/05/05 07:27:27;;;;;;;5.30;4.90;;;19.70;71.30;;;;;;5057534;28;20202;-88
2023/05/05 07:29:53;;;;;;;5.57;5.18;;;19.60;72.50;;;;;;5053539;28;20301;-88
2023/05/05 07:32:18;;;;;;;5.57;5.05;;;19.70;71.50;;;;;;5052368;28;20176;-88
2023/05/05 07:34:44;;;;;;;6.30;5.72;;;19.70;72.90;;;;;;5053019;28;20177;-87
2023/05/05 07:37:10;;;;;;;6.25;5.65;;;19.80;71.10;;;;;;5053793;28;20215;-88
2023/05/05 07:39:36;;;;;;;5.63;5.10;;;19.80;69.10;;;;;;5036173;28;20518;-88
2023/05/05 07:42:02;;;;;;;5.97;5.47;;;19.80;69.70;;;;;;5065121;28;20190;-89
2023/05/05 07:44:28;;;;;;;5.80;5.30;;;19.60;71.40;;;;;;5065872;28;20173;-87
2023/05/05 07:46:54;;;;;;;7.57;5.70;;;19.60;71.30;;;;;;5038495;28;20204;-89
2023/05/05 07:49:21;;;;;;;7.22;5.70;;;19.80;69.10;;;;;;5039318;28;20176;-87
2023/05/05 07:51:48;;;;;;;5.35;4.95;;;20.00;68.60;;;;;;5038496;28;20184;-88
2023/05/05 07:54:15;;;;;;;5.40;4.90;;;20.10;67.30;;;;;;5039214;28;20188;-88
2023/05/05 07:56:41;;;;;;;6.20;5.30;;;20.00;66.80;;;;;;5041139;28;20894;-88
2023/05/05 07:59:06;;;;;;;5.57;5.18;;;19.90;68.10;;;;;;5051694;28;20214;-88
2023/05/05 08:01:33;;;;;;;6.10;5.55;;;20.00;68.60;;;;;;5045284;28;20180;-88
2023/05/05 08:03:58;;;;;;;5.97;5.35;;;20.20;67.00;;;;;;5032937;28;20560;-90
2023/05/05 08:06:26;;;;;;;6.28;5.65;;;20.30;66.20;;;;;;5036059;28;20203;-88
2023/05/05 08:08:52;;;;;;;5.28;4.88;;;20.30;66.40;;;;;;5032728;28;20186;-89
2023/05/05 08:11:18;;;;;;;5.20;4.80;;;20.30;65.90;;;;;;5064317;28;20222;-88
2023/05/05 08:13:44;;;;;;;5.72;5.00;;;20.50;64.60;;;;;;5054547;28;20183;-87
2023/05/05 08:16:11;;;;;;;5.10;4.70;;;20.40;66.40;;;;;;5074940;28;20180;-89
2023/05/05 08:18:37;;;;;;;5.80;5.22;;;20.40;66.00;;;;;;5055515;28;20239;-87
2023/05/05 08:21:04;;;;;;;7.43;5.10;;;20.50;65.70;;;;;;5055716;28;20200;-88
2023/05/05 08:23:30;;;;;;;7.18;5.22;;;20.70;65.10;;;;;;5054208;28;20205;-87
2023/05/05 08:25:56;;;;;;;5.65;5.05;;;20.80;63.20;;;;;;5054771;28;20745;-88
2023/05/05 08:28:24;;;;;;;5.40;4.90;;;21.00;63.10;;;;;;5053430;28;20196;-89
2023/05/05 08:30:50;;;;;;;7.30;4.85;;;20.90;64.80;;;;;;5052102;28;20186;-87
2023/05/05 08:33:16;;;;;;;4.97;4.57;;;21.10;62.30;;;;;;5050966;28;20188;-86
2023/05/05 08:35:42;;;;;;;5.00;4.50;;;21.30;60.50;;;;;;5053310;28;20184;-89
2023/05/05 08:38:09;;;;;;;4.95;4.55;;;21.40;61.30;;;;;;5035752;28;20241;-88
2023/05/05 08:40:40;;;;;;;4.80;4.40;;;21.40;61.10;;;;;;5045546;28;20407;-88
2023/05/05 08:43:06;;;;;;;66.93;10.80;;;21.50;61.70;;;;;;5057206;28;20208;-87
2023/05/05 08:45:31;;;;;;;7.75;5.07;;;21.60;61.20;;;;;;5043577;28;20182;-85
2023/05/05 08:48:01;;;;;;;5.35;4.90;;;21.70;60.20;;;;;;5034838;28;20249;-88
2023/05/05 08:50:28;;;;;;;4.90;4.40;;;21.60;60.00;;;;;;5035794;28;20184;-87
2023/05/05 08:53:20;;;;;;;8.50;5.28;;;21.30;61.00;;;;;;5035757;28;20188;-88
2023/05/05 08:55:54;;;;;;;6.45;4.75;;;21.40;61.50;;;;;;5039556;28;20223;-89
2023/05/05 08:58:23;;;;;;;5.78;4.40;;;21.60;60.90;;;;;;5035871;28;20754;-87
2023/05/05 09:00:50;;;;;;;5.38;4.88;;;21.50;59.60;;;;;;5060069;28;20470;-87
2023/05/05 09:03:16;;;;;;;5.15;4.75;;;21.40;60.40;;;;;;5055386;28;20213;-89
2023/05/05 09:05:42;;;;;;;5.20;4.85;;;21.30;61.50;;;;;;5055859;28;20178;-88
2023/05/05 09:08:10;;;;;;;4.93;4.57;;;21.20;62.90;;;;;;5073339;28;20205;-89
2023/05/05 09:10:40;;;;;;;6.35;4.90;;;21.20;61.90;;;;;;5033191;28;20173;-89
2023/05/05 09:13:06;;;;;;;5.40;5.00;;;21.30;62.70;;;;;;5034851;28;20540;-89
2023/05/05 09:15:32;;;;;;;5.25;4.75;;;21.40;62.20;;;;;;5036001;28;20250;-88
2023/05/05 09:17:59;;;;;;;5.45;4.95;;;21.40;62.00;;;;;;5032548;28;20201;-88
2023/05/05 09:20:36;;;;;;;5.60;5.13;;;21.60;61.40;;;;;;5053604;28;20595;-88
2023/05/05 09:23:12;;;;;;;4.88;4.43;;;21.80;61.10;;;;;;5074893;28;20885;-88
2023/05/05 09:25:40;;;;;;;5.93;5.03;;;22.10;60.30;;;;;;5062305;28;20533;-89
2023/05/05 09:28:17;;;;;;;9.15;5.18;;;22.20;58.00;;;;;;5038562;28;20204;-88
2023/05/05 09:30:45;;;;;;;4.97;4.50;;;22.20;61.40;;;;;;5037567;28;20266;-89
2023/05/05 09:33:11;;;;;;;7.72;4.95;;;22.30;60.30;;;;;;5040144;28;20248;-87
2023/05/05 09:35:54;;;;;;;5.30;4.90;;;22.60;58.10;;;;;;5058982;28;20226;-88
2023/05/05 09:38:21;;;;;;;5.32;4.82;;;22.60;57.20;;;;;;5044589;28;20261;-88
2023/05/05 09:40:49;;;;;;;4.90;4.50;;;22.80;57.40;;;;;;5059791;28;20200;-88
2023/05/05 09:43:16;;;;;;;5.38;4.88;;;22.90;55.90;;;;;;5042470;28;20266;-89
2023/05/05 09:45:42;;;;;;;5.45;5.07;;;22.70;56.70;;;;;;5041033;28;20177;-89
2023/05/05 09:48:26;;;;;;;5.28;4.70;;;22.80;58.20;;;;;;5020882;28;20228;-89
2023/05/05 09:50:52;;;;;;;5.00;4.70;;;22.70;58.10;;;;;;5036747;28;20253;-87
2023/05/05 09:53:18;;;;;;;5.32;4.82;;;22.80;56.00;;;;;;5049113;28;20187;-88
2023/05/05 09:55:57;;;;;;;5.18;4.60;;;22.90;55.20;;;;;;5059980;28;20176;-88
2023/05/05 09:58:25;;;;;;;5.32;4.93;;;22.80;55.30;;;;;;5056115;28;20239;-87
2023/05/05 10:00:52;;;;;;;5.25;4.70;;;22.50;57.30;;;;;;5037347;28;20244;-90
2023/05/05 10:03:18;;;;;;;4.50;4.20;;;22.40;57.40;;;;;;5055294;28;20210;-88
2023/05/05 10:05:56;;;;;;;4.78;4.38;;;22.50;54.70;;;;;;5055835;28;20240;-87
2023/05/05 10:08:29;;;;;;;4.05;3.80;;;22.60;56.30;;;;;;5061648;28;20683;-87
2023/05/05 10:11:05;;;;;;;4.72;4.20;;;22.70;53.20;;;;;;5067521;28;20393;-89
2023/05/05 10:13:38;;;;;;;4.97;4.47;;;22.90;53.30;;;;;;5040993;28;20176;-88
2023/05/05 10:16:08;;;;;;;4.95;4.45;;;23.30;55.00;;;;;;5054867;28;20200;-89
2023/05/05 10:18:35;;;;;;;5.18;4.78;;;23.30;53.20;;;;;;5056055;28;20192;-89
2023/05/05 10:21:02;;;;;;;5.78;4.07;;;23.10;54.60;;;;;;5055249;28;20260;-88
2023/05/05 10:23:43;;;;;;;4.85;4.45;;;23.30;54.30;;;;;;5055742;28;20234;-89
2023/05/05 10:26:13;;;;;;;4.50;4.20;;;23.80;52.30;;;;;;5056839;28;20188;-88
2023/05/05 10:28:50;;;;;;;5.90;4.22;;;23.90;49.50;;;;;;5061203;28;20203;-90
2023/05/05 10:31:40;;;;;;;4.20;3.90;;;24.10;47.90;;;;;;5057720;28;20176;-89
2023/05/05 10:34:11;;;;;;;5.43;3.60;;;24.20;46.50;;;;;;5049619;28;20181;-89
2023/05/05 10:36:38;;;;;;;5.65;3.97;;;24.20;46.30;;;;;;5068774;28;20212;-87
2023/05/05 10:39:09;;;;;;;3.78;3.58;;;24.40;47.40;;;;;;5076562;28;20183;-88
2023/05/05 10:41:36;;;;;;;4.20;3.78;;;24.60;46.30;;;;;;5061013;28;20266;-88
2023/05/05 10:44:03;;;;;;;4.13;3.80;;;25.00;44.60;;;;;;5036290;28;20193;-88
2023/05/05 10:46:29;;;;;;;4.53;4.13;;;25.40;44.80;;;;;;5038123;28;20205;-87
2023/05/05 10:49:36;;;;;;;4.57;4.18;;;25.60;43.20;;;;;;5052524;28;20245;-88
2023/05/05 10:52:26;;;;;;;4.88;4.47;;;25.40;44.70;;;;;;5035855;28;20339;-88
2023/05/05 10:55:04;;;;;;;4.82;4.30;;;25.30;46.00;;;;;;5054962;28;20247;-88
2023/05/05 10:57:35;;;;;;;4.45;4.15;;;24.80;45.50;;;;;;5054894;28;20196;-86
2023/05/05 11:00:01;;;;;;;4.05;3.75;;;24.80;45.20;;;;;;5054575;28;20183;-87
2023/05/05 11:02:30;;;;;;;4.50;4.10;;;24.80;45.30;;;;;;5037923;28;20215;-88
2023/05/05 11:05:21;;;;;;;3.83;3.45;;;24.90;41.90;;;;;;5057589;28;20184;-88
2023/05/05 11:07:48;;;;;;;4.15;3.83;;;24.70;45.40;;;;;;5055693;28;20203;-88
2023/05/05 11:10:15;;;;;;;3.75;3.45;;;24.60;43.60;;;;;;5056339;28;20160;-87
2023/05/05 11:12:50;;;;;;;4.25;3.88;;;24.90;43.30;;;;;;5038153;28;20203;-88
2023/05/05 11:15:28;;;;;;;4.38;4.10;;;25.30;44.30;;;;;;5036528;28;20188;-89
2023/05/05 11:17:55;;;;;;;4.18;3.88;;;25.60;44.20;;;;;;5037632;28;20596;-89
2023/05/05 11:20:39;;;;;;;4.35;4.00;;;25.70;42.40;;;;;;5056513;28;20176;-89
2023/05/05 11:23:05;;;;;;;3.92;3.63;;;25.50;43.70;;;;;;5057573;28;20196;-88
2023/05/05 11:25:39;;;;;;;4.60;4.30;;;26.20;42.80;;;;;;5059425;28;20172;-88
2023/05/05 11:28:10;;;;;;;5.38;4.90;;;26.40;41.80;;;;;;5080026;28;20203;-86
2023/05/05 11:30:56;;;;;;;5.13;4.53;;;26.90;38.20;;;;;;5063924;28;20172;-88
2023/05/05 11:33:24;;;;;;;5.47;5.10;;;27.10;40.20;;;;;;5062376;28;20198;-87
2023/05/05 11:35:57;;;;;;;5.43;5.00;;;27.40;39.10;;;;;;5052416;28;20176;-89
2023/05/05 11:38:32;;;;;;;5.32;5.00;;;27.10;39.00;;;;;;5044815;28;20227;-89
2023/05/05 11:41:05;;;;;;;5.15;4.85;;;27.20;38.70;;;;;;5076091;28;20163;-88
2023/05/05 11:43:31;;;;;;;5.15;4.75;;;26.90;39.00;;;;;;5061038;28;20196;-88
2023/05/05 11:46:16;;;;;;;5.88;5.40;;;26.70;39.50;;;;;;5057346;28;20187;-88
2023/05/05 11:48:50;;;;;;;5.00;4.68;;;26.70;39.30;;;;;;5060548;28;20679;-85
2023/05/05 11:51:17;;;;;;;5.05;4.60;;;25.80;40.70;;;;;;5040197;28;20187;-89
2023/05/05 11:53:44;;;;;;;4.90;4.60;;;25.60;40.90;;;;;;5068234;28;20180;-88
2023/05/05 11:56:12;;;;;;;4.65;4.25;;;25.80;40.80;;;;;;5069900;28;20252;-88
2023/05/05 11:58:38;;;;;;;5.10;4.47;;;25.80;40.10;;;;;;5067754;28;20195;-88
2023/05/05 12:01:08;;;;;;;4.57;4.20;;;25.60;41.90;;;;;;5054045;28;20180;-88
2023/05/05 12:03:37;;;;;;;4.63;4.32;;;25.50;43.10;;;;;;5051693;28;20555;-88
2023/05/05 12:06:04;;;;;;;4.45;4.25;;;25.50;40.80;;;;;;5075972;28;20160;-89
2023/05/05 12:08:40;;;;;;;8.52;4.95;;;25.60;39.90;;;;;;5067213;28;20187;-89
2023/05/05 12:11:08;;;;;;;5.20;4.75;;;25.90;41.90;;;;;;5052955;28;20191;-88
2023/05/05 12:13:34;;;;;;;5.40;4.90;;;26.20;39.60;;;;;;5054656;28;20183;-88
2023/05/05 12:16:13;;;;;;;6.55;4.90;;;26.70;38.10;;;;;;5064346;28;20212;-91
2023/05/05 12:18:40;;;;;;;5.55;5.05;;;26.50;39.40;;;;;;5045983;28;20203;-90
2023/05/05 12:21:18;;;;;;;7.63;5.20;;;26.50;38.80;;;;;;5068236;28;20210;-90
2023/05/05 12:23:46;;;;;;;5.05;4.75;;;26.60;39.20;;;;;;5048231;28;20221;-90
2023/05/05 12:26:31;;;;;;;4.93;4.65;;;26.30;36.60;;;;;;5046488;28;20180;-92
2023/05/05 12:29:00;;;;;;;5.47;4.60;;;26.50;37.00;;;;;;5055044;28;20180;-90
2023/05/05 12:31:40;;;;;;;5.40;5.00;;;26.50;37.80;;;;;;5054272;28;20183;-89
2023/05/05 12:34:10;;;;;;;5.53;5.10;;;26.50;36.40;;;;;;5035453;28;20188;-88
2023/05/05 12:36:36;;;;;;;5.45;5.05;;;26.70;37.30;;;;;;5054731;28;20199;-89
2023/05/05 12:39:04;;;;;;;5.72;5.32;;;26.90;38.30;;;;;;5056447;28;20184;-89
2023/05/05 12:41:30;;;;;;;6.22;5.75;;;26.50;39.40;;;;;;5034547;28;20715;-88
2023/05/05 12:43:58;;;;;;;5.97;5.47;;;26.40;40.00;;;;;;5038503;28;20200;-90
2023/05/05 12:46:25;;;;;;;5.40;5.10;;;26.50;40.50;;;;;;5055794;28;20236;-89
2023/05/05 12:49:05;;;;;;;6.13;5.63;;;26.80;39.60;;;;;;5071971;28;20267;-90
2023/05/05 12:51:35;;;;;;;6.60;5.95;;;27.20;40.00;;;;;;5060339;28;20229;-90
2023/05/05 12:54:03;;;;;;;5.70;5.40;;;27.90;37.10;;;;;;5045079;28;20188;-90